| time (UTC) | temp C | wind direction | speed KPH | gust KPH | rain 1hr cm | rain 24hr cm | rain mn cm | humidity % | barometer mb |
| 20260906093015 | 19 | 46 | 0.0 | 1.6 | 0.00 | 0.13 | 0.00 | 96 | 1012.3 |
| 20260906091511 | 19 | 314 | 0.0 | 3.2 | 0.00 | 0.13 | 0.00 | 96 | 1012.3 |
| 20260906090009 | 19 | 216 | 1.6 | 3.2 | 0.00 | 0.13 | 0.00 | 97 | 1012.1 |
| 20260906084510 | 19 | 201 | 1.6 | 3.2 | 0.00 | 0.13 | 0.00 | 96 | 1012.1 |
| 20260906083006 | 19 | 231 | 0.0 | 3.2 | 0.00 | 0.13 | 0.00 | 96 | 1012.0 |
| 20260906081505 | 19 | 213 | 0.0 | 3.2 | 0.00 | 0.13 | 0.00 | 96 | 1012.2 |
| 20260906080005 | 20 | 269 | 0.0 | 3.2 | 0.00 | 0.13 | 0.00 | 96 | 1012.1 |
| 20260906074503 | 20 | 327 | 0.0 | 3.2 | 0.00 | 0.13 | 0.00 | 96 | 1012.1 |
| 20260906073005 | 20 | 79 | 0.0 | 1.6 | 0.00 | 0.13 | 0.00 | 96 | 1011.8 |
| 20260906071559 | 20 | 46 | 0.0 | 1.6 | 0.00 | 0.13 | 0.00 | 95 | 1011.9 |
| 20260906071501 | 20 | 28 | 0.0 | 1.6 | 0.00 | 0.13 | 0.00 | 95 | 1011.9 |
| 20260906070057 | 20 | 108 | 0.0 | 1.6 | 0.00 | 0.13 | 0.00 | 95 | 1012.1 |
| 20260906064556 | 20 | 56 | 0.0 | 1.6 | 0.00 | 0.13 | 0.00 | 95 | 1012.4 |
| 20260906063055 | 20 | 28 | 0.0 | 6.4 | 0.00 | 0.13 | 0.00 | 95 | 1012.6 |
| 20260906061554 | 20 | 206 | 0.0 | 8.0 | 0.00 | 0.13 | 0.00 | 95 | 1012.6 |
| 20260906060118 | 21 | 178 | 3.2 | 6.4 | 0.00 | 0.13 | 0.00 | 95 | 1012.5 |
| 20260906054608 | 21 | 264 | 3.2 | 8.0 | 0.00 | 0.13 | 0.00 | 95 | 1012.6 |
| 20260906053054 | 21 | 46 | 0.0 | 3.2 | 0.00 | 0.13 | 0.00 | 95 | 1012.6 |
| 20260906051558 | 21 | 135 | 0.0 | 3.2 | 0.00 | 0.13 | 0.00 | 95 | 1012.8 |
| 20260906050053 | 21 | 218 | 1.6 | 8.0 | 0.00 | 0.13 | 0.00 | 96 | 1012.7 |
| 20260906044503 | 21 | 246 | 3.2 | 8.0 | 0.00 | 0.13 | 0.00 | 96 | 1012.8 |
| 20260906043100 | 21 | 314 | 1.6 | 4.8 | 0.00 | 0.13 | 0.00 | 96 | 1012.8 |
| 20260906041600 | 21 | 269 | 0.0 | 6.4 | 0.00 | 0.13 | 0.00 | 96 | 1012.9 |
| 20260906040057 | 21 | 46 | 0.0 | 3.2 | 0.00 | 0.13 | 0.13 | 96 | 1013.0 |
| 20260906034558 | 21 | 314 | 0.0 | 3.2 | 0.00 | 0.13 | 0.13 | 96 | 1013.2 |
| 20260906033045 | 21 | 216 | 1.6 | 3.2 | 0.00 | 0.13 | 0.13 | 96 | 1013.2 |
| 20260906031542 | 21 | 89 | 0.0 | 3.2 | 0.00 | 0.13 | 0.13 | 96 | 1013.2 |
| 20260906030044 | 21 | 269 | 0.0 | 6.4 | 0.00 | 0.13 | 0.13 | 96 | 1013.2 |
| 20260906024554 | 21 | 46 | 1.6 | 3.2 | 0.00 | 0.13 | 0.13 | 95 | 1013.2 |
| 20260906023051 | 21 | 46 | 0.0 | 3.2 | 0.00 | 0.13 | 0.13 | 95 | 1013.1 |
| 20260906021557 | 21 | 46 | 0.0 | 3.2 | 0.00 | 0.13 | 0.13 | 95 | 1013.0 |
| 20260906020050 | 21 | 28 | 0.0 | 1.6 | 0.00 | 0.13 | 0.13 | 95 | 1012.7 |
| 20260906014557 | 22 | 269 | 0.0 | 3.2 | 0.00 | 0.13 | 0.13 | 95 | 1012.6 |
| 20260906013057 | 22 | 117 | 0.0 | 3.2 | 0.00 | 0.13 | 0.13 | 94 | 1012.8 |
| 20260906011557 | 22 | 28 | 0.0 | 3.2 | 0.00 | 0.13 | 0.13 | 94 | 1012.6 |
| 20260906010136 | 22 | 206 | 0.0 | 3.2 | 0.00 | 0.13 | 0.13 | 93 | 1012.2 |
| 20260906004556 | 22 | 1 | 0.0 | 1.6 | 0.00 | 0.13 | 0.13 | 93 | 1012.2 |
| 20260906003045 | 22 | 229 | 3.2 | 4.8 | 0.00 | 0.13 | 0.13 | 92 | 1011.8 |
| 20260906001558 | 23 | 257 | 1.6 | 3.2 | 0.00 | 0.13 | 0.13 | 91 | 1011.6 |
| 20260906000045 | 23 | 1 | 0.0 | 3.2 | 0.00 | 0.13 | 0.13 | 90 | 1011.4 |
| 20260905234503 | 24 | 46 | 1.6 | 3.2 | 0.00 | 0.13 | 0.13 | 88 | 1011.3 |
| 20260905233001 | 25 | 1 | 0.0 | 3.2 | 0.00 | 0.13 | 0.13 | 85 | 1011.4 |
| 20260905231505 | 26 | 178 | 0.0 | 3.2 | 0.00 | 0.13 | 0.13 | 84 | 1011.3 |
| 20260905230001 | 27 | 46 | 0.0 | 3.2 | 0.00 | 0.13 | 0.13 | 80 | 1011.4 |
| 20260905224558 | 27 | 178 | 1.6 | 4.8 | 0.00 | 0.13 | 0.13 | 78 | 1011.5 |
| 20260905223058 | 28 | 269 | 3.2 | 6.4 | 0.00 | 0.13 | 0.13 | 69 | 1011.5 |
| 20260905221601 | 28 | 252 | 3.2 | 6.4 | 0.00 | 0.13 | 0.13 | 68 | 1011.4 |
| 20260905220100 | 28 | 274 | 3.2 | 12.9 | 0.00 | 0.13 | 0.13 | 68 | 1011.5 |
| 20260905214553 | 28 | 223 | 6.4 | 16.1 | 0.00 | 0.13 | 0.13 | 68 | 1011.7 |
| 20260905213052 | 28 | 211 | 3.2 | 14.5 | 0.00 | 0.13 | 0.13 | 69 | 1011.7 |
| 20260905211552 | 28 | 46 | 3.2 | 8.0 | 0.00 | 0.13 | 0.13 | 72 | 1011.7 |
| 20260905210107 | 27 | 250 | 1.6 | 8.0 | 0.00 | 0.43 | 0.13 | 74 | 1011.4 |
| 20260905204542 | 26 | 200 | 6.4 | 11.3 | 0.00 | 0.43 | 0.13 | 74 | 1011.3 |
| 20260905203042 | 27 | 243 | 6.4 | 14.5 | 0.00 | 0.43 | 0.13 | 71 | 1011.4 |
| 20260905201541 | 27 | 239 | 6.4 | 16.1 | 0.00 | 0.43 | 0.13 | 70 | 1011.7 |
| 20260905200107 | 27 | 196 | 4.8 | 12.9 | 0.00 | 0.43 | 0.13 | 76 | 1011.5 |
| 20260905194545 | 26 | 223 | 8.0 | 20.9 | 0.00 | 0.43 | 0.13 | 80 | 1011.8 |
| 20260905193044 | 26 | 276 | 8.0 | 19.3 | 0.00 | 0.43 | 0.13 | 80 | 1011.1 |
| 20260905191543 | 26 | 258 | 8.0 | 14.5 | 0.00 | 0.43 | 0.13 | 79 | 1011.2 |
| 20260905190043 | 26 | 243 | 4.8 | 9.7 | 0.00 | 0.43 | 0.13 | 79 | 1011.2 |
| 20260905184549 | 24 | 269 | 4.8 | 9.7 | 0.00 | 0.43 | 0.13 | 84 | 1011.5 |
| 20260905183044 | 23 | 274 | 6.4 | 12.9 | 0.03 | 0.43 | 0.13 | 88 | 1011.8 |
| 20260905181545 | 23 | 250 | 3.2 | 9.7 | 0.13 | 0.43 | 0.13 | 90 | 1012.1 |
| 20260905180041 | 23 | 197 | 4.8 | 8.0 | 0.13 | 0.43 | 0.13 | 92 | 1012.6 |
| 20260905174533 | 25 | 178 | 1.6 | 11.3 | 0.13 | 0.43 | 0.13 | 84 | 1013.3 |
| 20260905173042 | 26 | 298 | 12.9 | 27.4 | 0.13 | 0.43 | 0.13 | 72 | 1013.4 |
| 20260905171536 | 31 | 338 | 17.7 | 30.6 | 0.00 | 0.30 | 0.00 | 63 | 1013.4 |
| 20260905170032 | 32 | 284 | 8.0 | 16.1 | 0.00 | 0.30 | 0.00 | 64 | 1012.9 |
| 20260905164529 | 32 | 271 | 9.7 | 19.3 | 0.00 | 0.30 | 0.00 | 64 | 1013.4 |
| 20260905163027 | 32 | 274 | 9.7 | 19.3 | 0.00 | 0.30 | 0.00 | 65 | 1013.4 |
| 20260905161523 | 32 | 213 | 3.2 | 12.9 | 0.00 | 0.30 | 0.00 | 68 | 1013.3 |
| 20260905160022 | 32 | 213 | 8.0 | 14.5 | 0.00 | 0.30 | 0.00 | 65 | 1013.5 |
| 20260905154521 | 31 | 335 | 6.4 | 11.3 | 0.00 | 0.30 | 0.00 | 69 | 1013.5 |
| 20260905153027 | 31 | 236 | 4.8 | 11.3 | 0.00 | 0.30 | 0.00 | 69 | 1013.4 |
| 20260905151516 | 30 | 250 | 6.4 | 14.5 | 0.00 | 0.30 | 0.00 | 69 | 1013.4 |
| 20260905150019 | 30 | 233 | 3.2 | 9.7 | 0.00 | 0.30 | 0.00 | 72 | 1013.4 |
| 20260905144513 | 29 | 202 | 4.8 | 11.3 | 0.00 | 0.30 | 0.00 | 75 | 1013.5 |
| 20260905143006 | 28 | 206 | 3.2 | 9.7 | 0.00 | 0.30 | 0.00 | 77 | 1013.7 |
| 20260905141503 | 28 | 231 | 6.4 | 12.9 | 0.00 | 0.30 | 0.00 | 79 | 1013.7 |
| 20260905140057 | 27 | 259 | 6.4 | 12.9 | 0.00 | 0.30 | 0.00 | 82 | 1013.6 |
| 20260905134557 | 26 | 303 | 3.2 | 11.3 | 0.00 | 0.30 | 0.00 | 85 | 1013.6 |
| 20260905133052 | 25 | 264 | 4.8 | 11.3 | 0.00 | 0.30 | 0.00 | 86 | 1013.8 |
| 20260905131558 | 24 | 232 | 4.8 | 11.3 | 0.00 | 0.30 | 0.00 | 90 | 1013.8 |
| 20260905130045 | 23 | 214 | 4.8 | 9.7 | 0.00 | 0.30 | 0.00 | 93 | 1014.0 |
| 20260905124538 | 22 | 223 | 3.2 | 14.5 | 0.00 | 0.30 | 0.00 | 96 | 1014.1 |
| 20260905123056 | 21 | 223 | 1.6 | 6.4 | 0.00 | 0.30 | 0.00 | 97 | 1014.1 |
| 20260905121530 | 21 | 135 | 0.0 | 4.8 | 0.00 | 0.30 | 0.00 | 98 | 1014.1 |
| 20260905120031 | 20 | 223 | 1.6 | 6.4 | 0.00 | 0.30 | 0.00 | 98 | 1014.0 |
| 20260905114548 | 20 | 46 | 0.0 | 4.8 | 0.00 | 0.30 | 0.00 | 97 | 1014.0 |
| 20260905113044 | 20 | 269 | 0.0 | 3.2 | 0.00 | 0.30 | 0.00 | 97 | 1013.7 |
| 20260905111549 | 20 | 1 | 1.6 | 3.2 | 0.00 | 0.30 | 0.00 | 97 | 1013.5 |
| 20260905110041 | 20 | 286 | 0.0 | 1.6 | 0.00 | 0.30 | 0.00 | 97 | 1013.4 |
| 20260905104528 | 20 | 206 | 0.0 | 1.6 | 0.00 | 0.30 | 0.00 | 97 | 1013.4 |
| 20260905103035 | 20 | 46 | 0.0 | 3.2 | 0.00 | 0.30 | 0.00 | 97 | 1013.2 |
| 20260905101527 | 20 | 269 | 0.0 | 3.2 | 0.00 | 0.30 | 0.00 | 97 | 1013.3 |
| 20260905100031 | 20 | 206 | 1.6 | 3.2 | 0.00 | 0.30 | 0.00 | 97 | 1013.2 |
| 20260905094525 | 20 | 302 | 0.0 | 3.2 | 0.00 | 0.30 | 0.00 | 97 | 1013.1 |